sensor_id;sensor_type;location;lat;lon;timestamp;pressure;altitude;pressure_sealevel;temperature
21210;BMP180;10762;42.206;25.326;2022-07-05T00:01:08;99530.00;;;26.30
21210;BMP180;10762;42.206;25.326;2022-07-05T00:03:34;99533.00;;;26.30
21210;BMP180;10762;42.206;25.326;2022-07-05T00:05:59;99529.00;;;26.40
21210;BMP180;10762;42.206;25.326;2022-07-05T00:08:25;99527.00;;;26.40
21210;BMP180;10762;42.206;25.326;2022-07-05T00:10:51;99533.00;;;26.40
21210;BMP180;10762;42.206;25.326;2022-07-05T00:13:17;99532.00;;;26.40
21210;BMP180;10762;42.206;25.326;2022-07-05T00:15:43;99529.00;;;26.40
21210;BMP180;10762;42.206;25.326;2022-07-05T00:18:09;99527.00;;;26.40
21210;BMP180;10762;42.206;25.326;2022-07-05T00:20:34;99524.00;;;26.40
21210;BMP180;10762;42.206;25.326;2022-07-05T00:23:00;99536.00;;;26.30
21210;BMP180;10762;42.206;25.326;2022-07-05T00:25:26;99532.00;;;26.30
21210;BMP180;10762;42.206;25.326;2022-07-05T00:27:52;99537.00;;;26.30
21210;BMP180;10762;42.206;25.326;2022-07-05T00:30:19;99536.00;;;26.30
21210;BMP180;10762;42.206;25.326;2022-07-05T00:32:45;99537.00;;;26.20
21210;BMP180;10762;42.206;25.326;2022-07-05T00:37:38;99525.00;;;26.20
21210;BMP180;10762;42.206;25.326;2022-07-05T00:40:05;99528.00;;;26.10
21210;BMP180;10762;42.206;25.326;2022-07-05T00:42:33;99527.00;;;26.10
21210;BMP180;10762;42.206;25.326;2022-07-05T00:44:59;99515.00;;;26.10
21210;BMP180;10762;42.206;25.326;2022-07-05T00:47:25;99499.00;;;26.10
21210;BMP180;10762;42.206;25.326;2022-07-05T00:49:51;99501.00;;;26.10
21210;BMP180;10762;42.206;25.326;2022-07-05T00:52:16;99500.00;;;26.20
21210;BMP180;10762;42.206;25.326;2022-07-05T00:54:42;99503.00;;;26.30
21210;BMP180;10762;42.206;25.326;2022-07-05T00:57:08;99495.00;;;26.40
21210;BMP180;10762;42.206;25.326;2022-07-05T00:59:34;99499.00;;;26.50
21210;BMP180;10762;42.206;25.326;2022-07-05T01:02:00;99500.00;;;26.50
21210;BMP180;10762;42.206;25.326;2022-07-05T01:04:26;99501.00;;;26.50
21210;BMP180;10762;42.206;25.326;2022-07-05T01:06:53;99504.00;;;26.50
21210;BMP180;10762;42.206;25.326;2022-07-05T01:09:20;99501.00;;;26.50
21210;BMP180;10762;42.206;25.326;2022-07-05T01:11:48;99491.00;;;26.50
21210;BMP180;10762;42.206;25.326;2022-07-05T01:14:19;99499.00;;;26.40
21210;BMP180;10762;42.206;25.326;2022-07-05T01:16:46;99512.00;;;26.40
21210;BMP180;10762;42.206;25.326;2022-07-05T01:19:12;99517.00;;;26.20
21210;BMP180;10762;42.206;25.326;2022-07-05T01:21:41;99511.00;;;26.10
21210;BMP180;10762;42.206;25.326;2022-07-05T01:24:08;99520.00;;;26.00
21210;BMP180;10762;42.206;25.326;2022-07-05T01:26:34;99528.00;;;25.80
21210;BMP180;10762;42.206;25.326;2022-07-05T01:29:00;99523.00;;;25.60
21210;BMP180;10762;42.206;25.326;2022-07-05T01:31:26;99520.00;;;25.50
21210;BMP180;10762;42.206;25.326;2022-07-05T01:33:52;99529.00;;;25.40
21210;BMP180;10762;42.206;25.326;2022-07-05T01:36:18;99538.00;;;25.20
21210;BMP180;10762;42.206;25.326;2022-07-05T01:38:44;99543.00;;;24.90
21210;BMP180;10762;42.206;25.326;2022-07-05T01:41:10;99536.00;;;24.60
21210;BMP180;10762;42.206;25.326;2022-07-05T01:43:36;99527.00;;;24.30
21210;BMP180;10762;42.206;25.326;2022-07-05T01:46:04;99531.00;;;24.30
21210;BMP180;10762;42.206;25.326;2022-07-05T01:48:32;99532.00;;;24.20
21210;BMP180;10762;42.206;25.326;2022-07-05T01:51:22;99535.00;;;24.30
21210;BMP180;10762;42.206;25.326;2022-07-05T01:53:52;99543.00;;;24.10
21210;BMP180;10762;42.206;25.326;2022-07-05T01:56:18;99542.00;;;23.90
21210;BMP180;10762;42.206;25.326;2022-07-05T01:58:44;99547.00;;;23.90
21210;BMP180;10762;42.206;25.326;2022-07-05T02:01:11;99544.00;;;23.80
21210;BMP180;10762;42.206;25.326;2022-07-05T02:03:39;99536.00;;;23.80
21210;BMP180;10762;42.206;25.326;2022-07-05T02:06:05;99543.00;;;23.70
21210;BMP180;10762;42.206;25.326;2022-07-05T02:08:36;99547.00;;;23.60
21210;BMP180;10762;42.206;25.326;2022-07-05T02:11:03;99544.00;;;23.50
21210;BMP180;10762;42.206;25.326;2022-07-05T02:13:29;99533.00;;;23.40
21210;BMP180;10762;42.206;25.326;2022-07-05T02:15:55;99542.00;;;23.40
21210;BMP180;10762;42.206;25.326;2022-07-05T02:18:20;99531.00;;;23.40
21210;BMP180;10762;42.206;25.326;2022-07-05T02:20:47;99538.00;;;23.50
21210;BMP180;10762;42.206;25.326;2022-07-05T02:23:13;99543.00;;;23.50
21210;BMP180;10762;42.206;25.326;2022-07-05T02:25:38;99543.00;;;23.40
21210;BMP180;10762;42.206;25.326;2022-07-05T02:28:04;99537.00;;;23.40
21210;BMP180;10762;42.206;25.326;2022-07-05T02:30:30;99531.00;;;23.30
21210;BMP180;10762;42.206;25.326;2022-07-05T02:32:56;99548.00;;;23.20
21210;BMP180;10762;42.206;25.326;2022-07-05T02:35:22;99547.00;;;23.20
21210;BMP180;10762;42.206;25.326;2022-07-05T02:37:48;99544.00;;;23.20
21210;BMP180;10762;42.206;25.326;2022-07-05T02:40:13;99546.00;;;23.20
21210;BMP180;10762;42.206;25.326;2022-07-05T02:42:40;99552.00;;;23.30
21210;BMP180;10762;42.206;25.326;2022-07-05T02:45:06;99549.00;;;23.30
21210;BMP180;10762;42.206;25.326;2022-07-05T02:47:33;99554.00;;;23.20
21210;BMP180;10762;42.206;25.326;2022-07-05T02:50:07;99552.00;;;23.20
21210;BMP180;10762;42.206;25.326;2022-07-05T02:52:34;99544.00;;;23.30
21210;BMP180;10762;42.206;25.326;2022-07-05T02:54:59;99542.00;;;23.20
21210;BMP180;10762;42.206;25.326;2022-07-05T02:57:25;99552.00;;;23.20
21210;BMP180;10762;42.206;25.326;2022-07-05T02:59:55;99549.00;;;23.20
21210;BMP180;10762;42.206;25.326;2022-07-05T03:02:21;99550.00;;;23.30
21210;BMP180;10762;42.206;25.326;2022-07-05T03:04:47;99546.00;;;23.40
21210;BMP180;10762;42.206;25.326;2022-07-05T03:07:13;99545.00;;;23.50
21210;BMP180;10762;42.206;25.326;2022-07-05T03:09:39;99543.00;;;23.50
21210;BMP180;10762;42.206;25.326;2022-07-05T03:12:06;99541.00;;;23.50
21210;BMP180;10762;42.206;25.326;2022-07-05T03:14:32;99546.00;;;23.60
21210;BMP180;10762;42.206;25.326;2022-07-05T03:16:58;99541.00;;;23.60
21210;BMP180;10762;42.206;25.326;2022-07-05T03:19:23;99541.00;;;23.70
21210;BMP180;10762;42.206;25.326;2022-07-05T03:21:49;99551.00;;;23.70
21210;BMP180;10762;42.206;25.326;2022-07-05T03:24:15;99555.00;;;23.70
21210;BMP180;10762;42.206;25.326;2022-07-05T03:26:41;99551.00;;;23.80
21210;BMP180;10762;42.206;25.326;2022-07-05T03:29:07;99542.00;;;23.90
21210;BMP180;10762;42.206;25.326;2022-07-05T03:31:33;99528.00;;;24.00
21210;BMP180;10762;42.206;25.326;2022-07-05T03:33:59;99533.00;;;24.00
21210;BMP180;10762;42.206;25.326;2022-07-05T03:36:24;99532.00;;;24.10
21210;BMP180;10762;42.206;25.326;2022-07-05T03:38:50;99534.00;;;24.20
21210;BMP180;10762;42.206;25.326;2022-07-05T03:41:17;99537.00;;;24.30
21210;BMP180;10762;42.206;25.326;2022-07-05T03:43:43;99540.00;;;24.40
21210;BMP180;10762;42.206;25.326;2022-07-05T03:46:08;99536.00;;;24.40
21210;BMP180;10762;42.206;25.326;2022-07-05T03:48:34;99521.00;;;24.50
21210;BMP180;10762;42.206;25.326;2022-07-05T03:51:00;99524.00;;;24.70
21210;BMP180;10762;42.206;25.326;2022-07-05T03:53:26;99536.00;;;24.70
21210;BMP180;10762;42.206;25.326;2022-07-05T03:55:51;99527.00;;;24.80
21210;BMP180;10762;42.206;25.326;2022-07-05T03:58:17;99525.00;;;24.90
21210;BMP180;10762;42.206;25.326;2022-07-05T04:00:43;99525.00;;;25.10
21210;BMP180;10762;42.206;25.326;2022-07-05T04:03:09;99542.00;;;25.10
21210;BMP180;10762;42.206;25.326;2022-07-05T04:05:34;99531.00;;;25.10
21210;BMP180;10762;42.206;25.326;2022-07-05T04:08:00;99532.00;;;25.20
21210;BMP180;10762;42.206;25.326;2022-07-05T04:10:26;99527.00;;;25.40
21210;BMP180;10762;42.206;25.326;2022-07-05T04:12:52;99534.00;;;25.40
21210;BMP180;10762;42.206;25.326;2022-07-05T04:15:18;99533.00;;;25.40
21210;BMP180;10762;42.206;25.326;2022-07-05T04:17:52;99530.00;;;25.50
21210;BMP180;10762;42.206;25.326;2022-07-05T04:20:19;99527.00;;;25.50
21210;BMP180;10762;42.206;25.326;2022-07-05T04:22:47;99535.00;;;25.60
21210;BMP180;10762;42.206;25.326;2022-07-05T04:25:13;99533.00;;;25.60
21210;BMP180;10762;42.206;25.326;2022-07-05T04:27:48;99534.00;;;25.60
21210;BMP180;10762;42.206;25.326;2022-07-05T04:30:14;99523.00;;;25.60
21210;BMP180;10762;42.206;25.326;2022-07-05T04:32:41;99517.00;;;25.80
21210;BMP180;10762;42.206;25.326;2022-07-05T04:35:08;99519.00;;;25.90
21210;BMP180;10762;42.206;25.326;2022-07-05T04:37:34;99513.00;;;26.10
21210;BMP180;10762;42.206;25.326;2022-07-05T04:40:00;99506.00;;;26.30
21210;BMP180;10762;42.206;25.326;2022-07-05T04:42:26;99502.00;;;26.40
21210;BMP180;10762;42.206;25.326;2022-07-05T04:44:52;99500.00;;;26.70
21210;BMP180;10762;42.206;25.326;2022-07-05T04:47:17;99496.00;;;26.70
21210;BMP180;10762;42.206;25.326;2022-07-05T04:49:43;99502.00;;;26.90
21210;BMP180;10762;42.206;25.326;2022-07-05T04:52:09;99501.00;;;26.90
21210;BMP180;10762;42.206;25.326;2022-07-05T04:54:36;99504.00;;;27.00
21210;BMP180;10762;42.206;25.326;2022-07-05T04:57:02;99501.00;;;27.10
21210;BMP180;10762;42.206;25.326;2022-07-05T04:59:28;99508.00;;;27.10
21210;BMP180;10762;42.206;25.326;2022-07-05T05:01:54;99514.00;;;27.10
21210;BMP180;10762;42.206;25.326;2022-07-05T05:04:20;99515.00;;;27.10
21210;BMP180;10762;42.206;25.326;2022-07-05T05:06:46;99515.00;;;27.10
21210;BMP180;10762;42.206;25.326;2022-07-05T05:09:11;99519.00;;;27.20
21210;BMP180;10762;42.206;25.326;2022-07-05T05:11:37;99514.00;;;27.30
21210;BMP180;10762;42.206;25.326;2022-07-05T05:14:03;99509.00;;;27.50
21210;BMP180;10762;42.206;25.326;2022-07-05T05:16:29;99508.00;;;27.70
21210;BMP180;10762;42.206;25.326;2022-07-05T05:18:55;99514.00;;;27.90
21210;BMP180;10762;42.206;25.326;2022-07-05T05:21:21;99510.00;;;28.10
21210;BMP180;10762;42.206;25.326;2022-07-05T05:23:47;99505.00;;;28.20
21210;BMP180;10762;42.206;25.326;2022-07-05T05:26:12;99510.00;;;28.30
21210;BMP180;10762;42.206;25.326;2022-07-05T05:28:38;99510.00;;;28.30
21210;BMP180;10762;42.206;25.326;2022-07-05T05:31:04;99523.00;;;28.40
21210;BMP180;10762;42.206;25.326;2022-07-05T05:33:30;99527.00;;;28.40
21210;BMP180;10762;42.206;25.326;2022-07-05T05:35:57;99523.00;;;28.40
21210;BMP180;10762;42.206;25.326;2022-07-05T05:38:22;99519.00;;;28.50
21210;BMP180;10762;42.206;25.326;2022-07-05T05:40:48;99523.00;;;28.80
21210;BMP180;10762;42.206;25.326;2022-07-05T05:43:14;99524.00;;;29.00
21210;BMP180;10762;42.206;25.326;2022-07-05T05:45:40;99530.00;;;29.10
21210;BMP180;10762;42.206;25.326;2022-07-05T05:48:05;99525.00;;;29.40
21210;BMP180;10762;42.206;25.326;2022-07-05T05:50:34;99526.00;;;29.60
21210;BMP180;10762;42.206;25.326;2022-07-05T05:53:00;99524.00;;;29.90
21210;BMP180;10762;42.206;25.326;2022-07-05T05:55:27;99534.00;;;30.00
21210;BMP180;10762;42.206;25.326;2022-07-05T05:57:53;99533.00;;;30.00
21210;BMP180;10762;42.206;25.326;2022-07-05T06:00:20;99533.00;;;30.00
21210;BMP180;10762;42.206;25.326;2022-07-05T06:02:47;99533.00;;;30.00
21210;BMP180;10762;42.206;25.326;2022-07-05T06:05:14;99535.00;;;30.10
21210;BMP180;10762;42.206;25.326;2022-07-05T06:07:58;99530.00;;;30.10
21210;BMP180;10762;42.206;25.326;2022-07-05T06:10:26;99542.00;;;30.40
21210;BMP180;10762;42.206;25.326;2022-07-05T06:12:53;99540.00;;;30.60
21210;BMP180;10762;42.206;25.326;2022-07-05T06:15:20;99528.00;;;30.60
21210;BMP180;10762;42.206;25.326;2022-07-05T06:17:46;99535.00;;;30.60
21210;BMP180;10762;42.206;25.326;2022-07-05T06:20:15;99531.00;;;30.70
21210;BMP180;10762;42.206;25.326;2022-07-05T06:22:41;99526.00;;;30.80
21210;BMP180;10762;42.206;25.326;2022-07-05T06:25:07;99524.00;;;30.90
21210;BMP180;10762;42.206;25.326;2022-07-05T06:27:41;99522.00;;;31.10
21210;BMP180;10762;42.206;25.326;2022-07-05T06:30:07;99528.00;;;31.20
21210;BMP180;10762;42.206;25.326;2022-07-05T06:32:34;99532.00;;;31.20
21210;BMP180;10762;42.206;25.326;2022-07-05T06:35:00;99527.00;;;31.40
21210;BMP180;10762;42.206;25.326;2022-07-05T06:37:25;99530.00;;;31.70
21210;BMP180;10762;42.206;25.326;2022-07-05T06:39:51;99529.00;;;31.90
21210;BMP180;10762;42.206;25.326;2022-07-05T06:42:17;99530.00;;;32.00
21210;BMP180;10762;42.206;25.326;2022-07-05T06:44:42;99521.00;;;32.00
21210;BMP180;10762;42.206;25.326;2022-07-05T06:47:09;99521.00;;;32.00
21210;BMP180;10762;42.206;25.326;2022-07-05T06:49:35;99520.00;;;32.10
21210;BMP180;10762;42.206;25.326;2022-07-05T06:52:01;99521.00;;;32.10
21210;BMP180;10762;42.206;25.326;2022-07-05T06:54:27;99523.00;;;32.10
21210;BMP180;10762;42.206;25.326;2022-07-05T06:56:53;99522.00;;;32.10
21210;BMP180;10762;42.206;25.326;2022-07-05T06:59:21;99522.00;;;32.10
21210;BMP180;10762;42.206;25.326;2022-07-05T07:01:47;99529.00;;;32.00
21210;BMP180;10762;42.206;25.326;2022-07-05T07:04:13;99521.00;;;32.00
21210;BMP180;10762;42.206;25.326;2022-07-05T07:06:39;99519.00;;;32.20
21210;BMP180;10762;42.206;25.326;2022-07-05T07:09:05;99517.00;;;32.20
21210;BMP180;10762;42.206;25.326;2022-07-05T07:11:48;99522.00;;;32.20
21210;BMP180;10762;42.206;25.326;2022-07-05T07:14:15;99515.00;;;32.40
21210;BMP180;10762;42.206;25.326;2022-07-05T07:16:42;99512.00;;;32.50
21210;BMP180;10762;42.206;25.326;2022-07-05T07:19:08;99516.00;;;32.80
21210;BMP180;10762;42.206;25.326;2022-07-05T07:21:34;99511.00;;;33.10
21210;BMP180;10762;42.206;25.326;2022-07-05T07:24:00;99523.00;;;33.10
21210;BMP180;10762;42.206;25.326;2022-07-05T07:26:27;99525.00;;;33.20
21210;BMP180;10762;42.206;25.326;2022-07-05T07:28:52;99511.00;;;33.30
21210;BMP180;10762;42.206;25.326;2022-07-05T07:31:18;99513.00;;;33.30
21210;BMP180;10762;42.206;25.326;2022-07-05T07:33:44;99496.00;;;33.40
21210;BMP180;10762;42.206;25.326;2022-07-05T07:36:10;99497.00;;;33.60
21210;BMP180;10762;42.206;25.326;2022-07-05T07:38:35;99495.00;;;33.90
21210;BMP180;10762;42.206;25.326;2022-07-05T07:41:01;99497.00;;;34.20
21210;BMP180;10762;42.206;25.326;2022-07-05T07:43:27;99505.00;;;34.40
21210;BMP180;10762;42.206;25.326;2022-07-05T07:45:54;99493.00;;;34.40
21210;BMP180;10762;42.206;25.326;2022-07-05T07:48:19;99487.00;;;34.40
21210;BMP180;10762;42.206;25.326;2022-07-05T07:50:48;99496.00;;;34.70
21210;BMP180;10762;42.206;25.326;2022-07-05T07:53:14;99484.00;;;34.80
21210;BMP180;10762;42.206;25.326;2022-07-05T07:55:40;99492.00;;;35.00
21210;BMP180;10762;42.206;25.326;2022-07-05T07:58:06;99481.00;;;35.30
21210;BMP180;10762;42.206;25.326;2022-07-05T08:00:32;99485.00;;;35.60
21210;BMP180;10762;42.206;25.326;2022-07-05T08:02:58;99495.00;;;35.80
21210;BMP180;10762;42.206;25.326;2022-07-05T08:05:24;99491.00;;;35.80
21210;BMP180;10762;42.206;25.326;2022-07-05T08:07:50;99496.00;;;35.70
21210;BMP180;10762;42.206;25.326;2022-07-05T08:10:17;99497.00;;;36.00
21210;BMP180;10762;42.206;25.326;2022-07-05T08:12:42;99501.00;;;36.10
21210;BMP180;10762;42.206;25.326;2022-07-05T08:15:09;99500.00;;;36.20
21210;BMP180;10762;42.206;25.326;2022-07-05T08:17:35;99497.00;;;36.50
21210;BMP180;10762;42.206;25.326;2022-07-05T08:20:00;99506.00;;;36.80
21210;BMP180;10762;42.206;25.326;2022-07-05T08:22:45;99501.00;;;36.80
21210;BMP180;10762;42.206;25.326;2022-07-05T08:25:11;99497.00;;;36.80
21210;BMP180;10762;42.206;25.326;2022-07-05T08:27:39;99499.00;;;36.80
21210;BMP180;10762;42.206;25.326;2022-07-05T08:30:05;99503.00;;;36.80
21210;BMP180;10762;42.206;25.326;2022-07-05T08:32:31;99506.00;;;36.90
21210;BMP180;10762;42.206;25.326;2022-07-05T08:34:57;99502.00;;;37.00
21210;BMP180;10762;42.206;25.326;2022-07-05T08:37:23;99506.00;;;37.20
21210;BMP180;10762;42.206;25.326;2022-07-05T08:39:49;99509.00;;;37.10
21210;BMP180;10762;42.206;25.326;2022-07-05T08:42:15;99481.00;;;37.10
21210;BMP180;10762;42.206;25.326;2022-07-05T08:44:42;99506.00;;;37.20
21210;BMP180;10762;42.206;25.326;2022-07-05T08:47:11;99515.00;;;37.20
21210;BMP180;10762;42.206;25.326;2022-07-05T08:49:40;99506.00;;;37.30
21210;BMP180;10762;42.206;25.326;2022-07-05T08:52:10;99511.00;;;37.40
21210;BMP180;10762;42.206;25.326;2022-07-05T08:54:37;99514.00;;;37.40
21210;BMP180;10762;42.206;25.326;2022-07-05T08:57:03;99508.00;;;37.40
21210;BMP180;10762;42.206;25.326;2022-07-05T08:59:29;99508.00;;;37.50
21210;BMP180;10762;42.206;25.326;2022-07-05T09:01:56;99507.00;;;37.70
21210;BMP180;10762;42.206;25.326;2022-07-05T09:04:23;99511.00;;;37.80
21210;BMP180;10762;42.206;25.326;2022-07-05T09:06:50;99506.00;;;37.90
21210;BMP180;10762;42.206;25.326;2022-07-05T09:09:18;99509.00;;;37.80
21210;BMP180;10762;42.206;25.326;2022-07-05T09:11:44;99508.00;;;37.60
21210;BMP180;10762;42.206;25.326;2022-07-05T09:14:24;99505.00;;;37.30
21210;BMP180;10762;42.206;25.326;2022-07-05T09:16:51;99495.00;;;37.00
21210;BMP180;10762;42.206;25.326;2022-07-05T09:19:17;99491.00;;;37.00
21210;BMP180;10762;42.206;25.326;2022-07-05T09:21:43;99487.00;;;37.00
21210;BMP180;10762;42.206;25.326;2022-07-05T09:24:10;99485.00;;;37.10
21210;BMP180;10762;42.206;25.326;2022-07-05T09:26:42;99483.00;;;37.40
21210;BMP180;10762;42.206;25.326;2022-07-05T09:29:14;99480.00;;;37.70
21210;BMP180;10762;42.206;25.326;2022-07-05T09:31:42;99473.00;;;38.00
21210;BMP180;10762;42.206;25.326;2022-07-05T09:34:12;99472.00;;;38.20
21210;BMP180;10762;42.206;25.326;2022-07-05T09:37:10;99468.00;;;38.20
21210;BMP180;10762;42.206;25.326;2022-07-05T09:39:37;99458.00;;;38.30
21210;BMP180;10762;42.206;25.326;2022-07-05T09:42:21;99463.00;;;38.20
21210;BMP180;10762;42.206;25.326;2022-07-05T09:44:53;99467.00;;;38.40
21210;BMP180;10762;42.206;25.326;2022-07-05T09:47:23;99456.00;;;38.70
21210;BMP180;10762;42.206;25.326;2022-07-05T09:49:55;99447.00;;;39.00
21210;BMP180;10762;42.206;25.326;2022-07-05T09:55:13;99452.00;;;38.70
21210;BMP180;10762;42.206;25.326;2022-07-05T09:57:44;99453.00;;;38.90
21210;BMP180;10762;42.206;25.326;2022-07-05T10:00:16;99448.00;;;39.10
21210;BMP180;10762;42.206;25.326;2022-07-05T10:02:46;99444.00;;;39.30
21210;BMP180;10762;42.206;25.326;2022-07-05T10:05:18;99439.00;;;39.40
21210;BMP180;10762;42.206;25.326;2022-07-05T10:07:47;99435.00;;;39.40
21210;BMP180;10762;42.206;25.326;2022-07-05T10:10:15;99410.00;;;39.30
21210;BMP180;10762;42.206;25.326;2022-07-05T10:12:43;99440.00;;;39.30
21210;BMP180;10762;42.206;25.326;2022-07-05T10:15:11;99436.00;;;39.50
21210;BMP180;10762;42.206;25.326;2022-07-05T10:17:41;99441.00;;;39.50
21210;BMP180;10762;42.206;25.326;2022-07-05T10:20:38;99439.00;;;39.30
21210;BMP180;10762;42.206;25.326;2022-07-05T10:25:35;99436.00;;;39.30
21210;BMP180;10762;42.206;25.326;2022-07-05T10:28:02;99428.00;;;39.20
21210;BMP180;10762;42.206;25.326;2022-07-05T10:30:28;99417.00;;;39.00
21210;BMP180;10762;42.206;25.326;2022-07-05T10:32:55;99427.00;;;39.10
21210;BMP180;10762;42.206;25.326;2022-07-05T10:35:22;99425.00;;;39.20
21210;BMP180;10762;42.206;25.326;2022-07-05T10:37:48;99427.00;;;39.30
21210;BMP180;10762;42.206;25.326;2022-07-05T10:40:15;99432.00;;;39.40
21210;BMP180;10762;42.206;25.326;2022-07-05T10:42:48;99430.00;;;39.30
21210;BMP180;10762;42.206;25.326;2022-07-05T10:45:31;99419.00;;;39.20
21210;BMP180;10762;42.206;25.326;2022-07-05T10:51:00;99417.00;;;39.20
21210;BMP180;10762;42.206;25.326;2022-07-05T10:54:07;99413.00;;;39.50
21210;BMP180;10762;42.206;25.326;2022-07-05T10:56:33;99411.00;;;39.80
21210;BMP180;10762;42.206;25.326;2022-07-05T10:59:08;99414.00;;;39.90
21210;BMP180;10762;42.206;25.326;2022-07-05T11:01:37;99406.00;;;39.80
21210;BMP180;10762;42.206;25.326;2022-07-05T11:06:30;99412.00;;;39.90
21210;BMP180;10762;42.206;25.326;2022-07-05T11:11:30;99403.00;;;40.00
21210;BMP180;10762;42.206;25.326;2022-07-05T11:13:58;99404.00;;;40.00
21210;BMP180;10762;42.206;25.326;2022-07-05T11:16:26;99395.00;;;39.80
21210;BMP180;10762;42.206;25.326;2022-07-05T11:19:13;99387.00;;;39.80
21210;BMP180;10762;42.206;25.326;2022-07-05T11:22:00;99379.00;;;39.90
21210;BMP180;10762;42.206;25.326;2022-07-05T11:24:29;99384.00;;;40.00
21210;BMP180;10762;42.206;25.326;2022-07-05T11:26:59;99386.00;;;40.10
21210;BMP180;10762;42.206;25.326;2022-07-05T11:29:47;99384.00;;;40.20
21210;BMP180;10762;42.206;25.326;2022-07-05T11:34:45;99375.00;;;40.00
21210;BMP180;10762;42.206;25.326;2022-07-05T11:39:41;99364.00;;;40.20
21210;BMP180;10762;42.206;25.326;2022-07-05T11:42:10;99360.00;;;40.40
21210;BMP180;10762;42.206;25.326;2022-07-05T11:44:37;99364.00;;;40.40
21210;BMP180;10762;42.206;25.326;2022-07-05T11:47:06;99361.00;;;40.20
21210;BMP180;10762;42.206;25.326;2022-07-05T11:49:32;99356.00;;;40.20
21210;BMP180;10762;42.206;25.326;2022-07-05T11:51:59;99351.00;;;40.40
21210;BMP180;10762;42.206;25.326;2022-07-05T11:54:30;99348.00;;;40.60
21210;BMP180;10762;42.206;25.326;2022-07-05T11:56:56;99343.00;;;40.60
21210;BMP180;10762;42.206;25.326;2022-07-05T11:59:23;99338.00;;;40.70
21210;BMP180;10762;42.206;25.326;2022-07-05T12:01:50;99331.00;;;40.70
21210;BMP180;10762;42.206;25.326;2022-07-05T12:04:29;99330.00;;;40.90
21210;BMP180;10762;42.206;25.326;2022-07-05T12:06:56;99334.00;;;41.00
21210;BMP180;10762;42.206;25.326;2022-07-05T12:09:27;99326.00;;;41.10
21210;BMP180;10762;42.206;25.326;2022-07-05T12:11:54;99326.00;;;41.10
21210;BMP180;10762;42.206;25.326;2022-07-05T12:14:50;99332.00;;;41.20
21210;BMP180;10762;42.206;25.326;2022-07-05T12:17:20;99328.00;;;41.10
21210;BMP180;10762;42.206;25.326;2022-07-05T12:19:46;99325.00;;;41.10
21210;BMP180;10762;42.206;25.326;2022-07-05T12:22:12;99321.00;;;41.00
21210;BMP180;10762;42.206;25.326;2022-07-05T12:24:38;99315.00;;;41.00
21210;BMP180;10762;42.206;25.326;2022-07-05T12:27:05;99320.00;;;40.80
21210;BMP180;10762;42.206;25.326;2022-07-05T12:29:31;99320.00;;;40.90
21210;BMP180;10762;42.206;25.326;2022-07-05T12:32:04;99324.00;;;41.00
21210;BMP180;10762;42.206;25.326;2022-07-05T12:34:34;99315.00;;;41.00
21210;BMP180;10762;42.206;25.326;2022-07-05T12:37:00;99323.00;;;40.80
21210;BMP180;10762;42.206;25.326;2022-07-05T12:39:25;99323.00;;;40.70
21210;BMP180;10762;42.206;25.326;2022-07-05T12:41:52;99324.00;;;40.50
21210;BMP180;10762;42.206;25.326;2022-07-05T12:44:19;99322.00;;;40.60
21210;BMP180;10762;42.206;25.326;2022-07-05T12:46:45;99319.00;;;40.80
21210;BMP180;10762;42.206;25.326;2022-07-05T12:49:11;99317.00;;;41.00
21210;BMP180;10762;42.206;25.326;2022-07-05T12:51:40;99307.00;;;41.10
21210;BMP180;10762;42.206;25.326;2022-07-05T12:54:07;99315.00;;;41.20
21210;BMP180;10762;42.206;25.326;2022-07-05T12:56:53;99311.00;;;41.10
21210;BMP180;10762;42.206;25.326;2022-07-05T12:59:38;99315.00;;;41.00
21210;BMP180;10762;42.206;25.326;2022-07-05T13:02:06;99300.00;;;41.00
21210;BMP180;10762;42.206;25.326;2022-07-05T13:04:32;99298.00;;;41.10
21210;BMP180;10762;42.206;25.326;2022-07-05T13:07:02;99304.00;;;41.20
21210;BMP180;10762;42.206;25.326;2022-07-05T13:12:08;99300.00;;;40.50
21210;BMP180;10762;42.206;25.326;2022-07-05T13:14:36;99294.00;;;40.40
21210;BMP180;10762;42.206;25.326;2022-07-05T13:17:02;99287.00;;;40.70
21210;BMP180;10762;42.206;25.326;2022-07-05T13:19:28;99282.00;;;40.80
21210;BMP180;10762;42.206;25.326;2022-07-05T13:21:54;99290.00;;;40.80
21210;BMP180;10762;42.206;25.326;2022-07-05T13:24:20;99286.00;;;40.80
21210;BMP180;10762;42.206;25.326;2022-07-05T13:26:45;99274.00;;;40.80
21210;BMP180;10762;42.206;25.326;2022-07-05T13:29:11;99279.00;;;40.70
21210;BMP180;10762;42.206;25.326;2022-07-05T13:31:37;99278.00;;;40.50
21210;BMP180;10762;42.206;25.326;2022-07-05T13:34:03;99269.00;;;40.20
21210;BMP180;10762;42.206;25.326;2022-07-05T13:36:29;99271.00;;;40.20
21210;BMP180;10762;42.206;25.326;2022-07-05T13:38:55;99259.00;;;40.20
21210;BMP180;10762;42.206;25.326;2022-07-05T13:41:20;99266.00;;;40.30
21210;BMP180;10762;42.206;25.326;2022-07-05T13:43:46;99266.00;;;40.20
21210;BMP180;10762;42.206;25.326;2022-07-05T13:46:12;99257.00;;;40.00
21210;BMP180;10762;42.206;25.326;2022-07-05T13:48:38;99259.00;;;40.00
21210;BMP180;10762;42.206;25.326;2022-07-05T13:51:05;99266.00;;;40.00
21210;BMP180;10762;42.206;25.326;2022-07-05T13:53:31;99261.00;;;40.00
21210;BMP180;10762;42.206;25.326;2022-07-05T13:55:57;99255.00;;;39.90
21210;BMP180;10762;42.206;25.326;2022-07-05T13:58:23;99249.00;;;39.80
21210;BMP180;10762;42.206;25.326;2022-07-05T14:00:48;99252.00;;;39.90
21210;BMP180;10762;42.206;25.326;2022-07-05T14:03:15;99249.00;;;40.00
21210;BMP180;10762;42.206;25.326;2022-07-05T14:05:42;99240.00;;;40.00
21210;BMP180;10762;42.206;25.326;2022-07-05T14:08:10;99240.00;;;40.00
21210;BMP180;10762;42.206;25.326;2022-07-05T14:10:36;99240.00;;;39.90
21210;BMP180;10762;42.206;25.326;2022-07-05T14:13:02;99234.00;;;39.70
21210;BMP180;10762;42.206;25.326;2022-07-05T14:15:28;99239.00;;;39.60
21210;BMP180;10762;42.206;25.326;2022-07-05T14:17:54;99234.00;;;39.50
21210;BMP180;10762;42.206;25.326;2022-07-05T14:20:20;99240.00;;;39.60
21210;BMP180;10762;42.206;25.326;2022-07-05T14:22:45;99223.00;;;39.50